BarenTS Sea — 9VAP5 — position and weather

sailwx.info

Track history (hours):
 
Tides and Currents Weather Stations Pressure Air Temp Water Temp Dewpoint Dewpoint Depression Visibility Wind Speed Wind Dir Waves Ship Positions

BarenTS Sea

Last reported at 2014-Dec-17 04:32 UTC. Time now 2014-Dec-18 09:34 UTC.
Position N 38°35' E 009°35'.

Length 248 m; draft 8.5 m.

Type: Tanker. MMSI: 563909000.

Date/timePositionNaut miles runAvg speedWind from/ knotsBaromVisibWave heightAir tempDewpointWater temp
2014-Dec-17 04:32N 38°35' E 009°35'1110.5
2014-Dec-17 03:32N 38°44' E 009°27'1110.6
2014-Dec-17 02:32N 38°52' E 009°18'1010.3
2014-Dec-17 01:33N 38°60' E 009°10'8 7.9
2014-Dec-17 00:33N 39°05' E 009°03'0 0.0
2014-Dec-16 23:33N 39°05' E 009°03'0 0.0
2014-Dec-16 22:33N 39°05' E 009°03'0 0.0
2014-Dec-16 21:33N 39°05' E 009°03'0 0.0
2014-Dec-16 20:33N 39°05' E 009°03'0 0.0
2014-Dec-16 19:33N 39°05' E 009°03'0 0.0
2014-Dec-16 18:33N 39°05' E 009°03'0 0.0
2014-Dec-16 17:33N 39°05' E 009°03'0 0.0
2014-Dec-16 16:33N 39°05' E 009°03'0 0.0
2014-Dec-16 15:33N 39°05' E 009°03'0 0.0
2014-Dec-16 14:33N 39°05' E 009°03'0 0.0
2014-Dec-16 13:33N 39°05' E 009°03'0 0.0
2014-Dec-16 12:33N 39°05' E 009°03'0 0.0
2014-Dec-16 11:33N 39°05' E 009°03'0 0.0
2014-Dec-16 10:33N 39°05' E 009°03'0 0.0
2014-Dec-16 09:33N 39°05' E 009°03'0 0.0
2014-Dec-16 08:33N 39°05' E 009°03'0 0.0
2014-Dec-16 07:33N 39°05' E 009°03'0 0.0
2014-Dec-16 06:33N 39°05' E 009°03'0 0.0
2014-Dec-16 04:24N 39°05' E 009°03'0 0.0
2014-Dec-16 03:30N 39°05' E 009°03'0 0.0
2014-Dec-16 02:33N 39°05' E 009°03'0 0.0
2014-Dec-16 01:09N 39°05' E 009°03'0 0.0
2014-Dec-16 00:06N 39°05' E 009°03'0 0.0
2014-Dec-15 23:33N 39°05' E 009°03'0 0.0
2014-Dec-15 22:33N 39°05' E 009°03'0 0.0
2014-Dec-15 21:33N 39°05' E 009°03'0 0.0
2014-Dec-15 20:33N 39°05' E 009°03'0 0.0
2014-Dec-15 19:33N 39°05' E 009°03'0 0.0
2014-Dec-15 18:33N 39°05' E 009°03'0 0.0
2014-Dec-15 17:33N 39°05' E 009°03'0 0.0
2014-Dec-15 16:33N 39°05' E 009°03'0 0.0
2014-Dec-15 15:33N 39°05' E 009°03'0 0.0
2014-Dec-15 14:33N 39°05' E 009°03'0 0.0
2014-Dec-15 13:33N 39°05' E 009°03'0 0.0
2014-Dec-15 12:33N 39°05' E 009°03'0 0.0
2014-Dec-15 11:30N 39°05' E 009°03'0 0.0
2014-Dec-15 10:33N 39°05' E 009°03'2 2.3
2014-Dec-15 09:33N 39°05' E 009°06'0 0.2
2014-Dec-15 08:33N 39°05' E 009°06'0 0.0
2014-Dec-15 07:33N 39°05' E 009°06'0 0.0
2014-Dec-15 06:27N 39°05' E 009°06'0 0.0
2014-Dec-15 05:30N 39°05' E 009°06'0 0.0
2014-Dec-15 04:33N 39°05' E 009°06'0 0.0
2014-Dec-15 03:30N 39°05' E 009°06'0 0.0
2014-Dec-15 02:33N 39°05' E 009°06'0 0.0
2014-Dec-15 01:33N 39°05' E 009°06'0 0.0
2014-Dec-15 00:30N 39°05' E 009°06'0 0.0
2014-Dec-14 23:33N 39°05' E 009°06'0 0.0
2014-Dec-14 22:33N 39°05' E 009°06'0 0.0
2014-Dec-14 21:18N 39°05' E 009°06'0 0.0
2014-Dec-14 20:27N 39°05' E 009°06'0 0.0
2014-Dec-14 19:33N 39°05' E 009°06'0 0.0
2014-Dec-14 18:33N 39°05' E 009°06'0 0.0
2014-Dec-14 17:30N 39°05' E 009°06'0 0.0
2014-Dec-14 16:21N 39°05' E 009°06'0 0.0
2014-Dec-14 15:33N 39°05' E 009°06'0 0.2
2014-Dec-14 14:33N 39°05' E 009°05'5 4.9
2014-Dec-14 13:33N 39°01' E 009°10'8 7.6
2014-Dec-14 12:29N 38°55' E 009°16'  
Track history (hours):
 
Tides and Currents Weather Stations Pressure Air Temp Water Temp Dewpoint Dewpoint Depression Visibility Wind Speed Wind Dir Waves Ship Positions

BarenTS Sea

Last reported at 2014-Dec-17 04:32 UTC. Time now 2014-Dec-18 09:34 UTC.
Position N 38°35' E 009°35'.

Length 248 m; draft 8.5 m.

Type: Tanker. MMSI: 563909000.

Date/timePositionNaut miles runAvg speedWind from/ knotsBaromVisibWave heightAir tempDewpointWater temp
2014-Dec-17 04:32N 38°35' E 009°35'1110.5
2014-Dec-17 03:32N 38°44' E 009°27'1110.6
2014-Dec-17 02:32N 38°52' E 009°18'1010.3
2014-Dec-17 01:33N 38°60' E 009°10'8 7.9
2014-Dec-17 00:33N 39°05' E 009°03'0 0.0
2014-Dec-16 23:33N 39°05' E 009°03'0 0.0
2014-Dec-16 22:33N 39°05' E 009°03'0 0.0
2014-Dec-16 21:33N 39°05' E 009°03'0 0.0
2014-Dec-16 20:33N 39°05' E 009°03'0 0.0
2014-Dec-16 19:33N 39°05' E 009°03'0 0.0
2014-Dec-16 18:33N 39°05' E 009°03'0 0.0
2014-Dec-16 17:33N 39°05' E 009°03'0 0.0
2014-Dec-16 16:33N 39°05' E 009°03'0 0.0
2014-Dec-16 15:33N 39°05' E 009°03'0 0.0
2014-Dec-16 14:33N 39°05' E 009°03'0 0.0
2014-Dec-16 13:33N 39°05' E 009°03'0 0.0
2014-Dec-16 12:33N 39°05' E 009°03'0 0.0
2014-Dec-16 11:33N 39°05' E 009°03'0 0.0
2014-Dec-16 10:33N 39°05' E 009°03'0 0.0
2014-Dec-16 09:33N 39°05' E 009°03'0 0.0
2014-Dec-16 08:33N 39°05' E 009°03'0 0.0
2014-Dec-16 07:33N 39°05' E 009°03'0 0.0
2014-Dec-16 06:33N 39°05' E 009°03'0 0.0
2014-Dec-16 04:24N 39°05' E 009°03'0 0.0
2014-Dec-16 03:30N 39°05' E 009°03'0 0.0
2014-Dec-16 02:33N 39°05' E 009°03'0 0.0
2014-Dec-16 01:09N 39°05' E 009°03'0 0.0
2014-Dec-16 00:06N 39°05' E 009°03'0 0.0
2014-Dec-15 23:33N 39°05' E 009°03'0 0.0
2014-Dec-15 22:33N 39°05' E 009°03'0 0.0
2014-Dec-15 21:33N 39°05' E 009°03'0 0.0
2014-Dec-15 20:33N 39°05' E 009°03'0 0.0
2014-Dec-15 19:33N 39°05' E 009°03'0 0.0
2014-Dec-15 18:33N 39°05' E 009°03'0 0.0
2014-Dec-15 17:33N 39°05' E 009°03'0 0.0
2014-Dec-15 16:33N 39°05' E 009°03'0 0.0
2014-Dec-15 15:33N 39°05' E 009°03'0 0.0
2014-Dec-15 14:33N 39°05' E 009°03'0 0.0
2014-Dec-15 13:33N 39°05' E 009°03'0 0.0
2014-Dec-15 12:33N 39°05' E 009°03'0 0.0
2014-Dec-15 11:30N 39°05' E 009°03'0 0.0
2014-Dec-15 10:33N 39°05' E 009°03'2 2.3
2014-Dec-15 09:33N 39°05' E 009°06'0 0.2
2014-Dec-15 08:33N 39°05' E 009°06'0 0.0
2014-Dec-15 07:33N 39°05' E 009°06'0 0.0
2014-Dec-15 06:27N 39°05' E 009°06'0 0.0
2014-Dec-15 05:30N 39°05' E 009°06'0 0.0
2014-Dec-15 04:33N 39°05' E 009°06'0 0.0
2014-Dec-15 03:30N 39°05' E 009°06'0 0.0
2014-Dec-15 02:33N 39°05' E 009°06'0 0.0
2014-Dec-15 01:33N 39°05' E 009°06'0 0.0
2014-Dec-15 00:30N 39°05' E 009°06'0 0.0
2014-Dec-14 23:33N 39°05' E 009°06'0 0.0
2014-Dec-14 22:33N 39°05' E 009°06'0 0.0
2014-Dec-14 21:18N 39°05' E 009°06'0 0.0
2014-Dec-14 20:27N 39°05' E 009°06'0 0.0
2014-Dec-14 19:33N 39°05' E 009°06'0 0.0
2014-Dec-14 18:33N 39°05' E 009°06'0 0.0
2014-Dec-14 17:30N 39°05' E 009°06'0 0.0
2014-Dec-14 16:21N 39°05' E 009°06'0 0.0
2014-Dec-14 15:33N 39°05' E 009°06'0 0.2
2014-Dec-14 14:33N 39°05' E 009°05'5 4.9
2014-Dec-14 13:33N 39°01' E 009°10'8 7.6
2014-Dec-14 12:29N 38°55' E 009°16'  

Dump ship's entire track history